Time;durP1;ratioP1;P1;durP2;ratioP2;P2;SDS_P1;SDS_P2;PMS_P1;PMS_P2;Temp;Humidity;BMP_temperature;BMP_pressure;BME280_temperature;BME280_humidity;BME280_pressure;Samples;Min_cycle;Max_cycle;Signal;HPM_P1;HPM_P2
2021/12/13 00:03:10;;;;;;;2.45;1.35;;;;;;;3.07;55.60;93086.06;4961366;28;20502;-91
2021/12/13 00:06:42;;;;;;;2.15;1.20;;;;;;;3.21;55.45;93107.31;4975329;28;20054;-89
2021/12/13 00:09:18;;;;;;;2.30;1.20;;;;;;;3.12;55.38;93079.19;4946565;28;20038;-90
2021/12/13 00:12:13;;;;;;;2.83;1.23;;;;;;;3.05;55.50;93047.47;4942384;28;20042;-89
2021/12/13 00:15:02;;;;;;;3.03;1.42;;;;;;;3.61;53.70;93075.53;4958016;28;20046;-90
2021/12/13 00:17:53;;;;;;;1.10;0.80;;;;;;;3.71;57.27;93049.84;4943089;28;20046;-89
2021/12/13 00:20:50;;;;;;;0.90;0.82;;;;;;;3.83;59.48;93037.66;4959247;28;20053;-89
2021/12/13 00:24:02;;;;;;;;;;;;;;;;;;;;;
2021/12/13 00:26:52;;;;;;;2.05;0.70;;;;;;;4.90;57.82;93035.25;4967059;28;20030;-90
2021/12/13 00:29:51;;;;;;;;;;;;;;;;;;;;;
2021/12/13 00:33:12;;;;;;;;;;;;;;;;;;;;;
2021/12/13 00:39:38;;;;;;;4.43;1.50;;;;;;;5.51;46.26;93082.81;4964251;28;20042;-91
2021/12/13 00:42:35;;;;;;;;;;;;;;;5.07;46.35;93087.16;4960280;28;20050;-91
2021/12/13 00:45:53;;;;;;;3.72;1.65;;;;;;;4.55;47.23;93050.03;4942536;28;19918;-90
2021/12/13 00:48:56;;;;;;;5.15;2.10;;;;;;;4.07;48.00;93027.19;4957619;28;20046;-90
2021/12/13 00:51:44;;;;;;;3.40;1.83;;;;;;;3.94;48.54;93033.41;4943080;28;20031;-90
2021/12/13 00:54:56;;;;;;;5.28;2.00;;;;;;;3.89;47.58;93057.44;4963136;28;20037;-89
2021/12/13 00:58:06;;;;;;;4.80;1.92;;;;;;;4.01;48.24;93095.47;4960033;28;20483;-90
2021/12/13 01:00:45;;;;;;;4.95;2.03;;;;;;;3.52;48.96;93033.69;4974679;28;20130;-90
2021/12/13 01:03:25;;;;;;;6.43;1.77;;;;;;;3.68;48.79;93084.75;4977379;28;20089;-90
2021/12/13 01:06:52;;;;;;;5.25;2.10;;;;;;;3.84;47.99;93103.97;4976463;28;20151;-90
2021/12/13 01:10:09;;;;;;;4.22;1.60;;;;;;;3.75;48.70;93113.09;4994104;28;20060;-90
2021/12/13 01:12:58;;;;;;;4.25;1.80;;;;;;;3.49;48.79;93068.59;4943864;28;20038;-90
2021/12/13 01:16:30;;;;;;;;;;;;;;;;;;;;;
2021/12/13 01:19:58;;;;;;;3.03;1.40;;;;;;;3.77;49.57;93110.28;4974308;28;20046;-90
2021/12/13 01:25:36;;;;;;;;;;;;;;;;;;;;;
2021/12/13 01:28:19;;;;;;;2.47;1.40;;;;;;;3.62;53.19;93095.22;4981241;28;20070;-90
2021/12/13 01:31:21;;;;;;;3.42;1.60;;;;;;;3.59;53.54;93108.63;4960586;28;20406;-91
2021/12/13 01:34:12;;;;;;;4.93;1.60;;;;;;;3.16;54.69;93058.06;4942485;28;20043;-89
2021/12/13 01:37:00;;;;;;;3.75;1.60;;;;;;;3.05;55.27;93057.81;4957496;28;20061;-90
2021/12/13 01:39:36;;;;;;;2.53;1.30;;;;;;;3.26;57.09;93094.47;4945888;28;20047;-89
2021/12/13 01:42:33;;;;;;;;;;;;;;;;;;;;;
2021/12/13 01:45:17;;;;;;;2.55;1.20;;;;;;;3.06;58.07;93100.78;4977597;28;20391;-90
2021/12/13 01:48:05;;;;;;;;;;;;;;;;;;;;;
2021/12/13 01:50:59;;;;;;;;;;;;;;;;;;;;;
2021/12/13 01:54:10;;;;;;;;;;;;;;;;;;;;;
2021/12/13 02:00:44;;;;;;;1.55;1.02;;;;;;;3.17;60.73;93090.66;4983424;28;20035;-90
2021/12/13 02:03:45;;;;;;;;;;;;;;;;;;;;;
2021/12/13 02:06:36;;;;;;;2.15;1.20;;;;;;;3.53;60.32;93112.91;4997183;28;20053;-89
2021/12/13 02:09:24;;;;;;;3.45;1.38;;;;;;;3.38;60.90;93082.31;4957660;28;20126;-90
2021/12/13 02:18:10;;;;;;;4.03;1.50;;;;;;;3.62;58.48;93072.72;4998249;28;20041;-90
2021/12/13 02:21:18;;;;;;;2.92;1.40;;;;;;;3.86;59.08;93093.38;4983135;28;20121;-90
2021/12/13 02:23:58;;;;;;;4.18;1.50;;;;;;;3.91;59.08;93085.69;4982205;28;20126;-91
2021/12/13 02:26:43;;;;;;;2.95;1.48;;;;;;;3.85;58.86;93091.78;4985355;28;20126;-94
2021/12/13 02:29:30;;;;;;;2.90;1.50;;;;;;;4.16;57.95;93103.53;4985378;28;20038;-90
2021/12/13 02:32:35;;;;;;;;;;;;;;;;;;;;;
2021/12/13 02:35:15;;;;;;;2.90;1.58;;;;;;;4.01;59.54;93061.78;4975168;28;20499;-90
2021/12/13 02:37:56;;;;;;;;;;;;;;;4.21;59.00;93114.00;4965118;28;20153;-90
2021/12/13 02:40:35;;;;;;;3.30;1.65;;;;;;;4.09;58.25;93105.47;4978394;28;20413;-91
2021/12/13 02:43:16;;;;;;;4.72;1.55;;;;;;;3.65;58.59;93050.78;4958609;28;20038;-89
2021/12/13 02:46:18;;;;;;;3.70;1.88;;;;;;;3.60;59.19;93064.38;4975764;28;20037;-89
2021/12/13 02:49:09;;;;;;;;;;;;;;;;;;;;;
2021/12/13 02:52:14;;;;;;;6.40;2.13;;;;;;;3.94;58.65;93116.31;4974666;28;20050;-89
2021/12/13 02:55:12;;;;;;;2.97;1.45;;;;;;;3.78;59.33;93091.13;4975151;28;20069;-89
2021/12/13 02:58:20;;;;;;;4.28;1.73;;;;;;;3.41;60.27;93061.16;4959790;28;20049;-89
2021/12/13 03:01:26;;;;;;;;;;;;;;;;;;;;;
2021/12/13 03:04:47;;;;;;;2.42;1.30;;;;;;;3.39;62.71;93073.53;4955854;29;20436;-90
2021/12/13 03:07:30;;;;;;;1.92;1.10;;;;;;;3.71;63.22;93114.56;4957229;28;20039;-89
2021/12/13 03:10:15;;;;;;;0.98;0.85;;;;;;;3.44;62.93;93081.41;4942649;28;20036;-89
2021/12/13 03:13:01;;;;;;;3.53;0.90;;;;;;;3.55;63.37;93067.66;4959840;28;20037;-90
2021/12/13 03:16:07;;;;;;;1.88;0.98;;;;;;;3.51;62.83;93065.75;4959503;28;20035;-90
2021/12/13 03:19:09;;;;;;;;;;;;;;;;;;;;;
2021/12/13 03:22:17;;;;;;;1.02;0.70;;;;;;;4.08;64.43;93060.63;4958320;28;20106;-90
2021/12/13 03:25:41;;;;;;;5.00;1.40;;;;;;;4.59;61.86;93118.56;4958194;28;20039;-90
2021/12/13 03:28:43;;;;;;;0.60;0.60;;;;;;;4.73;62.20;93111.28;4872559;28;20081;-91
2021/12/13 03:31:36;;;;;;;1.73;1.00;;;;;;;4.90;60.12;93050.81;4894347;28;20051;-90
2021/12/13 03:34:40;;;;;;;1.45;0.80;;;;;;;5.05;60.66;93045.84;4974230;28;20078;-91
2021/12/13 03:37:25;;;;;;;0.50;0.50;;;;;;;5.35;60.75;93092.22;4938666;29;20031;-90
2021/12/13 03:40:19;;;;;;;1.15;0.60;;;;;;;5.27;61.08;93076.25;4954046;28;20070;-90
2021/12/13 03:46:53;;;;;;;0.60;0.60;;;;;;;5.26;60.63;93077.28;4951995;29;20066;-90
2021/12/13 03:49:58;;;;;;;0.65;0.65;;;;;;;5.16;61.57;93064.97;4940204;29;20035;-90
2021/12/13 03:52:57;;;;;;;0.60;0.60;;;;;;;5.04;61.24;93049.47;4940440;28;20054;-90
2021/12/13 03:55:39;;;;;;;0.52;0.52;;;;;;;5.31;61.11;93075.53;4942239;28;20035;-90
2021/12/13 03:58:28;;;;;;;0.60;0.60;;;;;;;5.43;60.76;93071.03;4941958;28;20054;-90
2021/12/13 04:01:12;;;;;;;0.82;0.60;;;;;;;5.83;60.03;93080.38;4962864;28;20061;-90
2021/12/13 04:03:53;;;;;;;0.65;0.55;;;;;;;6.04;58.67;93067.66;4961255;28;20049;-91
2021/12/13 04:06:52;;;;;;;0.40;0.40;;;;;;;6.34;58.80;93111.38;4961559;28;20039;-91
2021/12/13 04:09:57;;;;;;;0.40;0.40;;;;;;;6.58;57.98;93111.88;4957778;28;20074;-91
2021/12/13 04:12:44;;;;;;;0.63;0.57;;;;;;;6.49;57.95;93076.16;4950778;28;20483;-90
2021/12/13 04:18:29;;;;;;;0.50;0.50;;;;;;;6.52;57.44;93042.63;4977309;28;20093;-91
2021/12/13 04:21:31;;;;;;;0.50;0.50;;;;;;;6.80;57.42;93072.78;4979241;28;20390;-91
2021/12/13 04:24:21;;;;;;;;;;;;;;;;;;;;;
2021/12/13 04:27:41;;;;;;;;;;;;;;;;;;;;;
2021/12/13 04:30:42;;;;;;;0.50;0.50;;;;;;;6.60;56.58;93036.19;4966733;28;20070;-91
2021/12/13 04:33:29;;;;;;;0.30;0.30;;;;;;;6.95;56.31;93066.13;4942453;28;20180;-92
2021/12/13 04:36:17;;;;;;;0.77;0.60;;;;;;;6.83;56.13;93048.88;4952463;28;20392;-91
2021/12/13 04:39:20;;;;;;;1.33;0.80;;;;;;;6.92;55.71;93069.25;4957271;28;20558;-92
2021/12/13 04:42:00;;;;;;;1.33;0.90;;;;;;;6.93;55.87;93107.22;4972853;28;20043;-91
2021/12/13 04:44:36;;;;;;;0.77;0.65;;;;;;;6.36;56.57;93057.31;4941818;28;20043;-90
2021/12/13 04:47:20;;;;;;;0.93;0.60;;;;;;;6.34;57.34;93053.38;4977672;28;20041;-90
2021/12/13 04:50:01;;;;;;;0.82;0.60;;;;;;;6.27;57.48;93047.59;4976472;28;20034;-91
2021/12/13 04:53:14;;;;;;;;;;;;;;;;;;;;;
2021/12/13 04:56:29;;;;;;;0.60;0.60;;;;;;;6.29;58.29;93072.31;4974462;28;20026;-91
2021/12/13 04:59:04;;;;;;;0.55;0.50;;;;;;;6.51;57.83;93093.09;4955559;28;20039;-92
2021/12/13 05:02:07;;;;;;;;;;;;;;;;;;;;;
2021/12/13 05:05:08;;;;;;;1.02;0.43;;;;;;;6.54;57.64;93071.78;4981874;28;20101;-91
2021/12/13 05:12:10;;;;;;;;;;;;;;;;;;;;;
2021/12/13 05:15:08;;;;;;;1.17;0.80;;;;;;;6.72;56.19;93062.81;4976143;28;20091;-91
2021/12/13 05:18:02;;;;;;;;;;;;;;;;;;;;;
2021/12/13 05:20:46;;;;;;;;;;;;;;;;;;;;;
2021/12/13 05:23:38;;;;;;;4.13;2.00;;;;;;;6.13;56.21;93049.81;4958819;28;20398;-92
2021/12/13 05:26:24;;;;;;;2.85;1.40;;;;;;;5.99;56.82;93063.19;4943816;28;20042;-91
2021/12/13 05:29:40;;;;;;;2.35;1.23;;;;;;;5.85;57.65;93077.53;4972468;28;20045;-92
2021/12/13 05:32:39;;;;;;;1.50;0.98;;;;;;;5.46;57.80;93058.59;4979391;28;20042;-91
2021/12/13 05:39:40;;;;;;;1.05;0.95;;;;;;;5.21;59.08;93052.03;4982248;28;20046;-90
2021/12/13 05:42:50;;;;;;;1.25;0.82;;;;;;;5.35;61.23;93092.22;4973882;28;20079;-91
2021/12/13 05:46:09;;;;;;;;;;;;;;;;;;;;;
2021/12/13 05:49:11;;;;;;;1.05;0.70;;;;;;;4.94;61.25;93068.28;4980171;28;20082;-90
2021/12/13 05:51:49;;;;;;;2.03;1.10;;;;;;;5.14;60.83;93113.72;4944339;28;20043;-89
2021/12/13 05:54:30;;;;;;;;;;;;;;;;;;;;;
2021/12/13 05:57:43;;;;;;;1.90;0.90;;;;;;;5.29;62.17;93131.31;4977543;28;20120;-91
2021/12/13 06:01:02;;;;;;;;;;;;;;;;;;;;;
2021/12/13 06:07:04;;;;;;;2.40;1.00;;;;;;;4.69;61.54;93060.09;4897587;29;20060;-91
2021/12/13 06:10:13;;;;;;;1.55;1.10;;;;;;;4.75;60.81;93065.13;4999131;28;20046;-93
2021/12/13 06:13:00;;;;;;;3.58;1.70;;;;;;;4.83;61.30;93086.53;4968782;28;20602;-90
2021/12/13 06:16:04;;;;;;;4.25;1.63;;;;;;;5.11;61.05;93135.75;4948542;28;20071;-89
2021/12/13 06:19:00;;;;;;;4.90;2.50;;;;;;;5.10;61.02;93134.16;4975038;28;20117;-88
2021/12/13 06:21:56;;;;;;;2.83;1.33;;;;;;;5.03;61.47;93143.91;4963214;28;20042;-88
2021/12/13 06:24:54;;;;;;;1.98;1.20;;;;;;;4.95;61.80;93129.53;4964405;28;20042;-88
2021/12/13 06:27:31;;;;;;;1.42;0.90;;;;;;;4.66;61.72;93097.69;4963928;28;20038;-90
2021/12/13 06:30:10;;;;;;;1.05;0.70;;;;;;;4.44;62.17;93078.63;4968850;28;20031;-89
2021/12/13 06:33:12;;;;;;;;;;;;;;;;;;;;;
2021/12/13 06:35:54;;;;;;;1.77;1.20;;;;;;;4.37;62.91;93084.75;4965582;28;20050;-88
2021/12/13 06:38:59;;;;;;;1.42;0.77;;;;;;;4.71;63.03;93147.03;4984119;28;20046;-89
2021/12/13 06:41:37;;;;;;;3.15;1.10;;;;;;;4.72;63.44;93151.19;4975623;28;20046;-89
2021/12/13 06:44:28;;;;;;;;;;;;;;;;;;;;;
2021/12/13 06:47:24;;;;;;;1.95;1.13;;;;;;;4.66;63.18;93136.56;4988032;28;20343;-88
2021/12/13 06:50:11;;;;;;;;;;;;;;;;;;;;;
2021/12/13 06:53:09;;;;;;;1.50;0.95;;;;;;;4.54;62.57;93125.47;4971110;28;20026;-88
2021/12/13 06:55:48;;;;;;;1.30;0.80;;;;;;;4.74;62.56;93156.94;4990530;28;20566;-87
2021/12/13 06:58:40;;;;;;;1.38;0.82;;;;;;;4.84;62.73;93176.28;4961031;28;20081;-88
2021/12/13 07:01:47;;;;;;;1.10;0.80;;;;;;;4.36;62.87;93103.88;4969904;28;20043;-88
2021/12/13 07:04:31;;;;;;;;;;;;;;;4.76;63.11;93175.63;4969642;28;20038;-88
2021/12/13 07:07:57;;;;;;;;;;;;;;;;;;;;;
2021/12/13 07:10:44;;;;;;;1.02;0.85;;;;;;;4.57;63.27;93154.31;4953835;28;20038;-87
2021/12/13 07:13:28;;;;;;;3.67;1.20;;;;;;;4.69;63.13;93172.41;4956642;28;20097;-88
2021/12/13 07:16:52;;;;;;;1.25;0.80;;;;;;;4.66;63.33;93169.47;4956705;28;20039;-88
2021/12/13 07:19:41;;;;;;;1.17;0.80;;;;;;;4.77;63.42;93179.81;4940073;28;20054;-88
2021/12/13 07:22:56;;;;;;;;;;;;;;;;;;;;;
2021/12/13 08:50:10;;;;;;;;;;;;;;;;;;;;;
2021/12/13 08:57:53;;;;;;;;;;;;;;;;;;;;;
2021/12/13 09:01:34;;;;;;;;;;;;;;;;;;;;;
2021/12/13 09:05:50;;;;;;;7.68;3.85;;;;;;;18.35;28.82;93210.75;4792769;30;20161;-92
2021/12/13 09:22:27;;;;;;;6.65;3.10;;;;;;;16.65;32.76;93215.78;4807087;29;20058;-92
2021/12/13 10:45:09;;;;;;;24.17;8.60;;;;;;;14.08;37.72;93174.22;4977708;28;20100;-90
2021/12/13 10:48:31;;;;;;;;;;;;;;;;;;;;;
2021/12/13 10:51:37;;;;;;;8.52;3.72;;;;;;;13.74;39.41;93155.03;4883824;29;20517;-90
2021/12/13 10:57:57;;;;;;;7.50;2.85;;;;;;;13.71;38.61;93168.78;4883610;29;20132;-91
2021/12/13 11:01:24;;;;;;;15.57;3.97;;;;;;;13.89;38.65;93187.41;4885095;29;20084;-91
2021/12/13 11:07:42;;;;;;;8.40;4.35;;;;;;;14.27;37.18;93119.59;4882715;29;20048;-91
2021/12/13 11:14:01;;;;;;;10.45;3.80;;;;;;;14.64;37.26;93154.75;4898841;29;20529;-91
2021/12/13 11:17:07;;;;;;;9.15;4.07;;;;;;;14.68;38.21;93168.09;4894858;29;20140;-91
2021/12/13 11:19:41;;;;;;;10.70;3.88;;;;;;;14.90;38.32;93159.47;4972689;28;20489;-91
2021/12/13 11:22:41;;;;;;;13.13;6.28;;;;;;;14.48;37.68;93124.50;4941356;28;20047;-90
2021/12/13 11:25:49;;;;;;;21.05;5.82;;;;;;;14.13;38.43;93118.81;4939331;28;20062;-91
2021/12/13 11:29:15;;;;;;;;;;;;;;;;;;;;;
2021/12/13 11:32:05;;;;;;;;;;;;;;;;;;;;;
2021/12/13 11:34:52;;;;;;;10.93;5.05;;;;;;;13.59;39.10;93170.28;4956363;28;20121;-91
2021/12/13 11:38:17;;;;;;;;;;;;;;;;;;;;;
2021/12/13 11:41:24;;;;;;;;;;;;;;;;;;;;;
2021/12/13 11:44:52;;;;;;;18.20;6.72;;;;;;;13.75;40.27;93166.34;4964524;28;20034;-90
2021/12/13 11:48:19;;;;;;;12.48;5.05;;;;;;;14.97;39.20;93159.84;4953028;28;20038;-91
2021/12/13 11:51:23;;;;;;;14.68;7.47;;;;;;;14.89;37.96;93155.31;4934566;28;20086;-92
2021/12/13 11:55:11;;;;;;;;;;;;;;;;;;;;;
2021/12/13 11:58:35;;;;;;;14.23;6.15;;;;;;;15.11;37.31;93157.97;4955154;28;20039;-89
2021/12/13 12:01:50;;;;;;;;;;;;;;;;;;;;;
2021/12/13 12:05:14;;;;;;;;;;;;;;;;;;;;;
2021/12/13 12:08:29;;;;;;;;;;;;;;;;;;;;;
2021/12/13 12:11:17;;;;;;;11.00;5.70;;;;;;;14.26;39.03;93089.09;4928363;28;20043;-90
2021/12/13 12:14:24;;;;;;;;;;;;;;;;;;;;;
2021/12/13 12:17:42;;;;;;;;;;;;;;;;;;;;;
2021/12/13 12:21:02;;;;;;;13.77;5.63;;;;;;;14.60;38.70;93106.34;4953728;28;20730;-90
2021/12/13 12:23:52;;;;;;;;;;;;;;;;;;;;;
2021/12/13 12:30:28;;;;;;;33.72;14.75;;;;;;;14.03;39.53;93092.72;4966739;28;20047;-90
2021/12/13 12:33:10;;;;;;;;;;;;;;;;;;;;;
2021/12/13 12:36:31;;;;;;;17.38;6.57;;;;;;;13.84;40.01;93080.41;4986555;28;20509;-91
2021/12/13 12:39:50;;;;;;;26.33;8.55;;;;;;;13.83;39.24;93126.22;4976300;28;20039;-91
2021/12/13 12:43:07;;;;;;;;;;;;;;;;;;;;;
2021/12/13 12:46:08;;;;;;;11.40;4.90;;;;;;;14.17;39.59;93104.00;4978660;28;20053;-90
2021/12/13 12:49:32;;;;;;;12.65;4.80;;;;;;;14.55;38.08;93066.94;4970486;28;20285;-90
2021/12/13 12:52:33;;;;;;;;;;;;;;;;;;;;;
2021/12/13 12:58:34;;;;;;;9.20;4.03;;;;;;;13.97;38.45;93104.41;4966520;28;20046;-90
2021/12/13 13:01:36;;;;;;;;;;;;;;;;;;;;;
2021/12/13 13:04:50;;;;;;;7.65;3.63;;;;;;;13.66;38.98;93099.66;4982362;28;20626;-90
2021/12/13 13:08:01;;;;;;;9.95;4.13;;;;;;;13.37;39.91;93087.53;4964307;28;20099;-91
2021/12/13 13:14:55;;;;;;;9.85;3.30;;;;;;;13.43;40.03;93123.19;4991387;28;20051;-94
2021/12/13 13:17:48;;;;;;;6.95;2.88;;;;;;;13.09;40.05;93081.38;4980529;28;20195;-92
2021/12/13 13:20:32;;;;;;;;;;;;;;;;;;;;;
2021/12/13 13:23:17;;;;;;;9.02;3.17;;;;;;;12.74;40.50;93072.94;4969834;28;20030;-91
2021/12/13 13:29:16;;;;;;;8.63;3.30;;;;;;;12.90;40.37;93074.28;4973024;28;20064;-89
2021/12/13 13:32:03;;;;;;;10.43;4.00;;;;;;;13.54;40.00;93094.88;4944178;28;20080;-90
2021/12/13 13:35:01;;;;;;;9.17;3.63;;;;;;;13.69;38.88;93075.41;4963074;28;20047;-89
2021/12/13 13:38:02;;;;;;;8.45;3.10;;;;;;;14.01;38.79;93123.81;4958601;28;20225;-90
2021/12/13 13:41:18;;;;;;;;;;;;;;;;;;;;;
2021/12/13 13:44:09;;;;;;;5.63;2.58;;;;;;;14.11;37.89;93063.06;4956748;29;20035;-90
2021/12/13 13:50:44;;;;;;;6.30;2.50;;;;;;;13.02;40.15;93065.97;4957541;29;20042;-89
2021/12/13 13:53:37;;;;;;;;;;;;;;;;;;;;;
2021/12/13 13:59:54;;;;;;;6.38;2.80;;;;;;;13.94;41.04;93105.75;4971616;28;20054;-90
2021/12/13 14:02:41;;;;;;;5.75;2.90;;;;;;;14.32;39.54;93093.19;4963851;28;20415;-90
2021/12/13 14:05:25;;;;;;;8.13;3.42;;;;;;;14.48;38.56;93111.31;4938261;29;20554;-90
2021/12/13 14:08:46;;;;;;;7.35;2.83;;;;;;;14.21;38.04;93120.00;4918235;29;20456;-91
2021/12/13 14:11:57;;;;;;;;;;;;;;;;;;;;;
2021/12/13 14:15:01;;;;;;;7.47;2.92;;;;;;;14.24;37.98;93085.97;4957231;29;20094;-90
2021/12/13 14:21:39;;;;;;;7.28;3.20;;;;;;;14.97;37.82;93101.84;4923508;28;20043;-90
2021/12/13 14:25:04;;;;;;;16.73;4.80;;;;;;;14.56;38.89;93089.56;4937407;28;20037;-91
2021/12/13 14:27:37;;;;;;;8.23;3.15;;;;;;;14.85;37.81;93083.94;4952751;29;20035;-91
2021/12/13 14:30:35;;;;;;;8.73;2.90;;;;;;;14.87;37.83;93083.66;4927201;29;20039;-91
2021/12/13 14:34:09;;;;;;;;;;;;;;;;;;;;;
2021/12/13 14:37:43;;;;;;;9.15;3.00;;;;;;;15.42;37.72;93141.44;4965456;28;20140;-92
2021/12/13 14:39:55;;;;;;;7.95;2.90;;;;;;;14.63;38.60;93092.56;4945773;28;20066;-91
2021/12/13 14:42:42;;;;;;;7.28;3.38;;;;;;;14.45;38.86;93104.75;4946221;28;20038;-91
2021/12/13 14:45:33;;;;;;;7.43;2.65;;;;;;;13.72;40.24;93098.53;4979272;28;20050;-89
2021/12/13 14:48:25;;;;;;;7.13;3.00;;;;;;;13.43;41.51;93138.97;4960455;28;20081;-91
2021/12/13 14:51:07;;;;;;;6.43;2.55;;;;;;;12.68;42.80;93110.88;4963592;28;20042;-89
2021/12/13 14:54:09;;;;;;;5.85;2.85;;;;;;;12.28;43.39;93118.97;4944657;28;20037;-90
2021/12/13 14:57:00;;;;;;;;;;;;;;;;;;;;;
2021/12/13 14:59:40;;;;;;;6.95;3.00;;;;;;;11.38;45.63;93104.63;4976116;28;20038;-89
2021/12/13 15:03:17;;;;;;;;;;;;;;;;;;;;;
2021/12/13 15:06:03;;;;;;;6.40;2.83;;;;;;;11.01;47.17;93142.66;4946290;28;20360;-89
2021/12/13 15:08:55;;;;;;;9.23;4.30;;;;;;;10.92;47.62;93157.38;4941982;28;20047;-91
2021/12/13 15:12:05;;;;;;;;;;;;;;;;;;;;;
2021/12/13 15:15:06;;;;;;;6.88;3.25;;;;;;;10.48;49.27;93150.25;4959738;28;20035;-89
2021/12/13 15:18:06;;;;;;;7.57;3.35;;;;;;;10.24;49.46;93146.66;4944694;28;20035;-89
2021/12/13 15:23:46;;;;;;;6.55;2.97;;;;;;;10.04;51.01;93171.06;4963332;28;20283;-89
2021/12/13 15:27:01;;;;;;;7.47;3.10;;;;;;;9.50;51.45;93122.78;4952989;28;20093;-90
2021/12/13 15:29:41;;;;;;;10.32;3.30;;;;;;;9.23;52.25;93110.00;4919237;29;20058;-89
2021/12/13 15:32:43;;;;;;;7.20;3.28;;;;;;;9.26;52.68;93152.06;4954510;28;20042;-88
2021/12/13 15:35:40;;;;;;;6.70;3.35;;;;;;;8.87;53.79;93116.00;4943693;28;20101;-90
2021/12/13 15:38:23;;;;;;;7.28;3.15;;;;;;;8.95;54.11;93146.81;4974555;28;20053;-89
2021/12/13 15:41:24;;;;;;;9.77;3.97;;;;;;;8.81;54.29;93142.38;4957655;28;20046;-89
2021/12/13 15:44:24;;;;;;;;;;;;;;;;;;;;;
2021/12/13 15:47:23;;;;;;;;;;;;;;;;;;;;;
2021/12/13 15:50:20;;;;;;;6.72;2.63;;;;;;;8.24;55.60;93120.50;4972267;28;20065;-90
2021/12/13 15:53:15;;;;;;;7.73;3.73;;;;;;;8.27;56.19;93146.09;4968069;28;20399;-92
2021/12/13 15:56:22;;;;;;;5.90;2.90;;;;;;;8.11;56.03;93140.81;4957168;28;20298;-89
2021/12/13 15:59:28;;;;;;;;;;;;;;;;;;;;;
2021/12/13 16:02:36;;;;;;;;;;;;;;;;;;;;;
2021/12/13 16:05:36;;;;;;;6.57;3.22;;;;;;;7.79;56.00;93150.53;4958558;28;20491;-88
2021/12/13 16:08:39;;;;;;;6.45;3.00;;;;;;;7.56;57.13;93123.81;4944704;28;20711;-89
2021/12/13 16:11:30;;;;;;;6.82;2.97;;;;;;;7.81;56.66;93175.31;4991130;28;20034;-85
2021/12/13 16:14:17;;;;;;;5.50;2.60;;;;;;;7.67;57.26;93168.97;4976223;28;20108;-86
2021/12/13 16:17:04;;;;;;;5.55;2.58;;;;;;;7.37;57.92;93151.31;4971757;28;20057;-86
2021/12/13 16:20:21;;;;;;;;;;;;;;;;;;;;;
2021/12/13 16:23:07;;;;;;;;;;;;;;;;;;;;;
2021/12/13 16:26:12;;;;;;;;;;;;;;;;;;;;;
2021/12/13 16:29:06;;;;;;;5.22;2.63;;;;;;;6.85;58.39;93132.69;4977729;28;20438;-88
2021/12/13 16:31:43;;;;;;;8.43;3.90;;;;;;;6.71;59.16;93126.31;4978135;28;20141;-88
2021/12/13 16:34:30;;;;;;;5.32;2.80;;;;;;;6.83;59.14;93158.16;4968858;28;20103;-87
2021/12/13 16:37:43;;;;;;;8.32;3.95;;;;;;;6.90;59.02;93180.63;4958436;28;20058;-87
2021/12/13 16:40:41;;;;;;;9.50;4.13;;;;;;;6.60;59.16;93145.47;4977139;28;20047;-87
2021/12/13 16:43:26;;;;;;;5.43;2.70;;;;;;;6.75;59.88;93183.84;4960885;28;20117;-88
2021/12/13 16:45:58;;;;;;;7.13;3.30;;;;;;;6.42;60.49;93139.56;4961608;28;20110;-88
2021/12/13 16:48:51;;;;;;;5.82;3.00;;;;;;;6.30;60.78;93132.91;4961089;28;20041;-88
2021/12/13 16:51:56;;;;;;;8.65;2.65;;;;;;;6.55;61.29;93185.22;4986259;28;20054;-93
2021/12/13 16:55:30;;;;;;;;;;;;;;;;;;;;;
2021/12/13 17:18:10;;;;;;;;;;;;;;;;;;;;;
2021/12/13 17:21:18;;;;;;;;;;;;;;;;;;;;;
2021/12/13 17:23:59;;;;;;;9.90;4.13;;;;;;;5.95;61.74;93188.66;4927416;29;20043;-87
2021/12/13 17:26:44;;;;;;;18.95;6.72;;;;;;;6.19;61.74;93254.19;4920439;29;20122;-86
2021/12/13 17:34:34;;;;;;;;;;;;;;;;;;;;;
2021/12/13 17:38:04;;;;;;;7.65;3.13;;;;;;;5.51;63.21;93186.69;4934054;29;20059;-87
2021/12/13 17:45:03;;;;;;;7.60;3.45;;;;;;;5.59;63.56;93216.69;4952010;28;20047;-87
2021/12/13 17:51:53;;;;;;;11.63;2.50;;;;;;;5.37;63.90;93186.22;4992824;28;20516;-87
2021/12/13 17:54:23;;;;;;;6.22;2.90;;;;;;;5.67;63.91;93236.28;4951184;28;20065;-87
2021/12/13 17:57:07;;;;;;;8.52;3.13;;;;;;;5.46;64.06;93214.41;4963783;28;20038;-88
2021/12/13 17:59:56;;;;;;;;;;;;;;;;;;;;;
2021/12/13 18:02:52;;;;;;;8.18;3.60;;;;;;;5.30;64.12;93200.41;4976652;28;20136;-87
2021/12/13 18:05:38;;;;;;;7.90;2.95;;;;;;;5.25;64.53;93192.53;4945777;28;20047;-87
2021/12/13 18:08:18;;;;;;;6.38;2.60;;;;;;;5.22;64.13;93198.97;4986844;28;20026;-87
2021/12/13 18:10:59;;;;;;;;;;;;;;;;;;;;;
2021/12/13 18:13:49;;;;;;;;;;;;;;;;;;;;;
2021/12/13 18:16:52;;;;;;;6.93;2.30;;;;;;;5.46;65.21;93272.31;4996116;28;20117;-86
2021/12/13 18:19:56;;;;;;;;;;;;;;;;;;;;;
2021/12/13 18:30:52;;;;;;;;;;;;;;;;;;;;;
2021/12/13 18:45:29;;;;;;;7.90;2.78;;;;;;;5.38;65.63;93303.84;4859364;29;20140;-88
2021/12/13 18:56:17;;;;;;;4.57;2.10;;;;;;;5.18;66.10;93312.88;4859240;29;20046;-87
2021/12/13 19:10:07;;;;;;;5.25;2.22;;;;;;;5.10;66.25;93321.03;4803571;29;20050;-87
2021/12/13 19:13:48;;;;;;;;;;;;;;;;;;;;;
2021/12/13 19:16:47;;;;;;;;;;;;;;;;;;;;;
2021/12/13 19:19:45;;;;;;;4.07;2.10;;;;;;;4.97;66.96;93327.25;4805028;29;20408;-88
2021/12/13 19:22:36;;;;;;;;;;;;;;;;;;;;;
2021/12/13 19:25:34;;;;;;;;;;;;;;;;;;;;;
2021/12/13 19:36:00;;;;;;;4.43;2.10;;;;;;;4.38;67.03;93257.38;4925683;29;20043;-87
2021/12/13 19:39:59;;;;;;;;;;;;;;;;;;;;;
2021/12/13 19:47:42;;;;;;;;;;;;;;;;;;;;;
2021/12/13 20:29:58;;;;;;;4.28;2.22;;;;;;;4.01;69.50;93349.34;4983518;23;20033;-77
2021/12/13 20:32:33;;;;;;;6.40;3.28;;;;;;;4.03;69.77;93352.50;4974046;28;20038;-76
2021/12/13 20:35:12;;;;;;;7.93;3.33;;;;;;;4.02;69.41;93358.72;4990912;28;20034;-76
2021/12/13 20:37:49;;;;;;;6.10;3.10;;;;;;;4.00;69.46;93358.16;4990642;28;20035;-76
2021/12/13 20:40:26;;;;;;;6.45;3.05;;;;;;;3.96;69.62;93363.78;4988584;28;20030;-77
2021/12/13 20:43:27;;;;;;;5.72;2.80;;;;;;;3.90;70.58;93361.31;4988825;28;20121;-77
2021/12/13 20:45:57;;;;;;;6.88;2.78;;;;;;;3.86;70.82;93373.91;4989133;28;20404;-77
2021/12/13 20:48:29;;;;;;;6.60;2.70;;;;;;;3.82;70.95;93367.56;4974626;28;20097;-78
2021/12/13 20:50:59;;;;;;;10.20;2.78;;;;;;;3.81;70.64;93373.00;4970295;28;20041;-77
2021/12/13 20:53:28;;;;;;;5.93;2.53;;;;;;;3.79;71.28;93365.44;4987810;28;20045;-77
2021/12/13 20:56:11;;;;;;;10.48;3.90;;;;;;;3.75;71.09;93374.66;4988283;28;20018;-77
2021/12/13 20:58:54;;;;;;;7.72;3.72;;;;;;;3.74;71.22;93373.09;4970163;28;20042;-77
2021/12/13 21:01:41;;;;;;;7.47;3.50;;;;;;;3.73;71.46;93374.88;4972859;28;20027;-77
2021/12/13 21:04:22;;;;;;;6.68;3.40;;;;;;;3.72;71.28;93378.50;4995441;28;20488;-76
2021/12/13 21:06:52;;;;;;;6.28;2.70;;;;;;;3.68;71.46;93366.22;4977718;28;20462;-75
2021/12/13 21:09:33;;;;;;;5.85;2.90;;;;;;;3.69;71.41;93373.75;4994517;28;20042;-76
2021/12/13 21:12:21;;;;;;;13.93;3.33;;;;;;;3.66;71.84;93373.41;4977234;28;20034;-76
2021/12/13 21:14:51;;;;;;;5.97;2.50;;;;;;;3.62;71.62;93377.44;4992457;28;20053;-75
2021/12/13 21:17:25;;;;;;;5.00;2.70;;;;;;;3.58;71.76;93371.94;4994603;28;20088;-76
2021/12/13 21:19:54;;;;;;;5.57;2.33;;;;;;;3.55;71.93;93373.13;4994442;28;20034;-76
2021/12/13 21:22:29;;;;;;;6.60;2.92;;;;;;;3.54;71.55;93371.56;4984075;28;20121;-76
2021/12/13 21:25:19;;;;;;;5.68;2.78;;;;;;;3.51;72.16;93372.03;4976026;28;20052;-76
2021/12/13 21:27:51;;;;;;;7.28;3.05;;;;;;;3.43;72.24;93364.56;4992872;28;20137;-76
2021/12/13 21:30:26;;;;;;;7.10;3.10;;;;;;;3.40;72.11;93370.19;4973381;28;20117;-76
2021/12/13 21:32:53;;;;;;;7.80;3.35;;;;;;;3.39;71.82;93368.59;4959496;28;20041;-77
2021/12/13 21:35:43;;;;;;;9.98;4.47;;;;;;;3.38;71.94;93367.03;4994583;28;20355;-76
2021/12/13 21:41:05;;;;;;;6.45;3.25;;;;;;;3.36;71.26;93373.44;4991944;28;20231;-76
2021/12/13 21:43:38;;;;;;;7.80;2.85;;;;;;;3.34;71.46;93373.66;4974570;28;20053;-76
2021/12/13 21:46:10;;;;;;;9.00;3.10;;;;;;;3.35;71.76;93367.44;4993875;28;20030;-76
2021/12/13 21:48:41;;;;;;;6.25;2.80;;;;;;;3.39;71.36;93367.81;4994718;28;20503;-76
2021/12/13 21:51:13;;;;;;;7.63;3.93;;;;;;;3.41;71.72;93365.78;4992495;28;20030;-76
2021/12/13 21:53:48;;;;;;;16.15;5.10;;;;;;;3.40;70.77;93370.19;4992098;28;20038;-76
2021/12/13 21:56:19;;;;;;;21.08;8.05;;;;;;;3.38;71.35;93371.38;4976646;28;20037;-76
2021/12/13 21:58:51;;;;;;;14.18;5.78;;;;;;;3.34;71.14;93371.06;4975453;28;20042;-76
2021/12/13 22:02:06;;;;;;;14.80;5.80;;;;;;;3.23;71.12;93358.88;5001047;23;20108;-87
2021/12/13 22:05:19;;;;;;;10.32;4.65;;;;;;;3.28;71.43;93369.34;5005820;28;20753;-88
2021/12/13 22:08:11;;;;;;;7.45;3.47;;;;;;;3.17;71.44;93360.50;4984341;28;20065;-90
2021/12/13 22:13:56;;;;;;;6.63;2.92;;;;;;;2.81;71.11;93315.59;4986434;28;20116;-88
2021/12/13 22:16:37;;;;;;;7.28;3.00;;;;;;;3.04;72.15;93353.72;4962913;28;20129;-88
2021/12/13 22:20:03;;;;;;;;;;;;;;;;;;;;;